sensor_id;sensor_type;location;lat;lon;timestamp;temperature;humidity
51661;DHT22;37741;49.748;8.490;2024-01-16T00:01:08;0.30;82.20
51661;DHT22;37741;49.748;8.490;2024-01-16T00:03:34;0.20;82.10
51661;DHT22;37741;49.748;8.490;2024-01-16T00:06:00;0.20;82.20
51661;DHT22;37741;49.748;8.490;2024-01-16T00:08:26;0.20;82.20
51661;DHT22;37741;49.748;8.490;2024-01-16T00:10:52;0.20;82.20
51661;DHT22;37741;49.748;8.490;2024-01-16T00:13:18;0.20;82.20
51661;DHT22;37741;49.748;8.490;2024-01-16T00:15:43;0.20;82.20
51661;DHT22;37741;49.748;8.490;2024-01-16T00:18:09;0.20;82.10
51661;DHT22;37741;49.748;8.490;2024-01-16T00:20:35;0.20;82.10
51661;DHT22;37741;49.748;8.490;2024-01-16T00:23:01;0.20;82.20
51661;DHT22;37741;49.748;8.490;2024-01-16T00:25:26;0.20;82.20
51661;DHT22;37741;49.748;8.490;2024-01-16T00:27:52;0.20;82.20
51661;DHT22;37741;49.748;8.490;2024-01-16T00:30:18;0.20;82.20
51661;DHT22;37741;49.748;8.490;2024-01-16T00:32:44;0.20;82.20
51661;DHT22;37741;49.748;8.490;2024-01-16T00:35:09;0.10;82.20
51661;DHT22;37741;49.748;8.490;2024-01-16T00:37:38;0.20;82.20
51661;DHT22;37741;49.748;8.490;2024-01-16T00:40:05;0.10;82.20
51661;DHT22;37741;49.748;8.490;2024-01-16T00:42:31;0.20;82.30
51661;DHT22;37741;49.748;8.490;2024-01-16T00:44:57;0.10;82.30
51661;DHT22;37741;49.748;8.490;2024-01-16T00:47:23;0.10;82.20
51661;DHT22;37741;49.748;8.490;2024-01-16T00:49:49;0.10;82.40
51661;DHT22;37741;49.748;8.490;2024-01-16T00:52:15;0.10;82.20
51661;DHT22;37741;49.748;8.490;2024-01-16T00:54:42;0.10;82.30
51661;DHT22;37741;49.748;8.490;2024-01-16T00:57:07;0.10;82.30
51661;DHT22;37741;49.748;8.490;2024-01-16T00:59:33;0.10;82.30
51661;DHT22;37741;49.748;8.490;2024-01-16T01:01:59;0.10;82.30
51661;DHT22;37741;49.748;8.490;2024-01-16T01:04:24;0.10;82.30
51661;DHT22;37741;49.748;8.490;2024-01-16T01:06:50;0.10;82.40
51661;DHT22;37741;49.748;8.490;2024-01-16T01:09:16;0.10;82.40
51661;DHT22;37741;49.748;8.490;2024-01-16T01:11:42;0.10;82.40
51661;DHT22;37741;49.748;8.490;2024-01-16T01:14:08;0.10;82.40
51661;DHT22;37741;49.748;8.490;2024-01-16T01:16:34;0.00;82.40
51661;DHT22;37741;49.748;8.490;2024-01-16T01:18:59;0.00;82.40
51661;DHT22;37741;49.748;8.490;2024-01-16T01:21:25;0.00;82.40
51661;DHT22;37741;49.748;8.490;2024-01-16T01:23:51;0.00;82.40
51661;DHT22;37741;49.748;8.490;2024-01-16T01:26:16;0.00;82.50
51661;DHT22;37741;49.748;8.490;2024-01-16T01:28:45;0.00;82.40
51661;DHT22;37741;49.748;8.490;2024-01-16T01:31:11;0.00;82.40
51661;DHT22;37741;49.748;8.490;2024-01-16T01:33:37;0.00;82.40
51661;DHT22;37741;49.748;8.490;2024-01-16T01:36:02;0.00;82.40
51661;DHT22;37741;49.748;8.490;2024-01-16T01:38:28;0.00;82.40
51661;DHT22;37741;49.748;8.490;2024-01-16T01:40:53;0.00;82.40
51661;DHT22;37741;49.748;8.490;2024-01-16T01:43:23;0.00;82.40
51661;DHT22;37741;49.748;8.490;2024-01-16T01:48:34;-0.10;82.40
51661;DHT22;37741;49.748;8.490;2024-01-16T01:51:01;0.00;82.50
51661;DHT22;37741;49.748;8.490;2024-01-16T01:53:27;-0.10;82.40
51661;DHT22;37741;49.748;8.490;2024-01-16T01:55:54;-0.10;82.40
51661;DHT22;37741;49.748;8.490;2024-01-16T01:58:20;-0.10;82.40
51661;DHT22;37741;49.748;8.490;2024-01-16T02:00:46;-0.10;82.40
51661;DHT22;37741;49.748;8.490;2024-01-16T02:03:12;-0.10;82.50
51661;DHT22;37741;49.748;8.490;2024-01-16T02:05:39;-0.10;82.50
51661;DHT22;37741;49.748;8.490;2024-01-16T02:08:05;-0.10;82.50
51661;DHT22;37741;49.748;8.490;2024-01-16T02:10:31;-0.10;82.50
51661;DHT22;37741;49.748;8.490;2024-01-16T02:12:58;-0.20;82.40
51661;DHT22;37741;49.748;8.490;2024-01-16T02:15:26;-0.20;82.40
51661;DHT22;37741;49.748;8.490;2024-01-16T02:17:52;-0.20;82.50
51661;DHT22;37741;49.748;8.490;2024-01-16T02:20:18;-0.20;82.50
51661;DHT22;37741;49.748;8.490;2024-01-16T02:22:46;-0.20;82.50
51661;DHT22;37741;49.748;8.490;2024-01-16T02:25:14;-0.20;82.50
51661;DHT22;37741;49.748;8.490;2024-01-16T02:27:39;-0.20;82.50
51661;DHT22;37741;49.748;8.490;2024-01-16T02:30:06;-0.20;82.50
51661;DHT22;37741;49.748;8.490;2024-01-16T02:32:31;-0.20;82.50
51661;DHT22;37741;49.748;8.490;2024-01-16T02:34:58;-0.20;82.50
51661;DHT22;37741;49.748;8.490;2024-01-16T02:37:24;-0.20;82.50
51661;DHT22;37741;49.748;8.490;2024-01-16T02:39:50;-0.20;82.50
51661;DHT22;37741;49.748;8.490;2024-01-16T02:42:16;-0.20;82.50
51661;DHT22;37741;49.748;8.490;2024-01-16T02:44:41;-0.20;82.60
51661;DHT22;37741;49.748;8.490;2024-01-16T02:47:07;-0.20;82.60
51661;DHT22;37741;49.748;8.490;2024-01-16T02:49:33;-0.20;82.60
51661;DHT22;37741;49.748;8.490;2024-01-16T02:51:59;-0.30;82.50
51661;DHT22;37741;49.748;8.490;2024-01-16T02:54:25;-0.30;82.60
51661;DHT22;37741;49.748;8.490;2024-01-16T02:56:50;-0.30;82.60
51661;DHT22;37741;49.748;8.490;2024-01-16T02:59:16;-0.30;82.60
51661;DHT22;37741;49.748;8.490;2024-01-16T03:01:42;-0.30;82.60
51661;DHT22;37741;49.748;8.490;2024-01-16T03:04:08;-0.30;82.70
51661;DHT22;37741;49.748;8.490;2024-01-16T03:06:34;-0.30;82.60
51661;DHT22;37741;49.748;8.490;2024-01-16T03:09:00;-0.30;82.70
51661;DHT22;37741;49.748;8.490;2024-01-16T03:11:26;-0.30;82.70
51661;DHT22;37741;49.748;8.490;2024-01-16T03:13:52;-0.30;82.70
51661;DHT22;37741;49.748;8.490;2024-01-16T03:16:20;-0.30;82.70
51661;DHT22;37741;49.748;8.490;2024-01-16T03:18:46;-0.40;82.70
51661;DHT22;37741;49.748;8.490;2024-01-16T03:21:13;-0.40;82.70
51661;DHT22;37741;49.748;8.490;2024-01-16T03:23:39;-0.30;82.70
51661;DHT22;37741;49.748;8.490;2024-01-16T03:26:04;-0.40;82.80
51661;DHT22;37741;49.748;8.490;2024-01-16T03:28:30;-0.40;82.80
51661;DHT22;37741;49.748;8.490;2024-01-16T03:30:56;-0.40;82.80
51661;DHT22;37741;49.748;8.490;2024-01-16T03:33:22;-0.40;82.80
51661;DHT22;37741;49.748;8.490;2024-01-16T03:35:48;-0.40;82.80
51661;DHT22;37741;49.748;8.490;2024-01-16T03:38:14;-0.40;82.90
51661;DHT22;37741;49.748;8.490;2024-01-16T03:40:40;-0.40;82.90
51661;DHT22;37741;49.748;8.490;2024-01-16T03:43:06;-0.40;82.90
51661;DHT22;37741;49.748;8.490;2024-01-16T03:45:31;-0.40;82.90
51661;DHT22;37741;49.748;8.490;2024-01-16T03:47:58;-0.40;82.90
51661;DHT22;37741;49.748;8.490;2024-01-16T03:50:23;-0.40;82.90
51661;DHT22;37741;49.748;8.490;2024-01-16T03:52:49;-0.50;82.90
51661;DHT22;37741;49.748;8.490;2024-01-16T03:55:14;-0.50;82.90
51661;DHT22;37741;49.748;8.490;2024-01-16T03:57:40;-0.40;83.00
51661;DHT22;37741;49.748;8.490;2024-01-16T04:00:06;-0.50;82.90
51661;DHT22;37741;49.748;8.490;2024-01-16T04:02:32;-0.50;82.90
51661;DHT22;37741;49.748;8.490;2024-01-16T04:04:58;-0.50;82.90
51661;DHT22;37741;49.748;8.490;2024-01-16T04:07:23;-0.50;82.90
51661;DHT22;37741;49.748;8.490;2024-01-16T04:09:51;-0.50;83.00
51661;DHT22;37741;49.748;8.490;2024-01-16T04:12:17;-0.50;83.60
51661;DHT22;37741;49.748;8.490;2024-01-16T04:14:43;-0.50;83.00
51661;DHT22;37741;49.748;8.490;2024-01-16T04:17:08;-0.50;83.00
51661;DHT22;37741;49.748;8.490;2024-01-16T04:19:34;-0.50;83.10
51661;DHT22;37741;49.748;8.490;2024-01-16T04:22:00;-0.50;83.00
51661;DHT22;37741;49.748;8.490;2024-01-16T04:24:30;-0.50;83.10
51661;DHT22;37741;49.748;8.490;2024-01-16T04:26:56;-0.50;83.10
51661;DHT22;37741;49.748;8.490;2024-01-16T04:29:21;-0.50;83.10
51661;DHT22;37741;49.748;8.490;2024-01-16T04:31:47;-0.50;83.10
51661;DHT22;37741;49.748;8.490;2024-01-16T04:34:13;-0.50;83.10
51661;DHT22;37741;49.748;8.490;2024-01-16T04:36:38;-0.50;83.10
51661;DHT22;37741;49.748;8.490;2024-01-16T04:39:04;-0.50;83.10
51661;DHT22;37741;49.748;8.490;2024-01-16T04:41:30;-0.50;83.20
51661;DHT22;37741;49.748;8.490;2024-01-16T04:43:55;-0.50;83.20
51661;DHT22;37741;49.748;8.490;2024-01-16T04:46:21;-0.50;83.20
51661;DHT22;37741;49.748;8.490;2024-01-16T04:48:46;-0.50;83.20
51661;DHT22;37741;49.748;8.490;2024-01-16T04:51:12;-0.50;83.20
51661;DHT22;37741;49.748;8.490;2024-01-16T04:53:38;-0.60;83.10
51661;DHT22;37741;49.748;8.490;2024-01-16T04:56:04;-0.60;83.10
51661;DHT22;37741;49.748;8.490;2024-01-16T04:58:30;-0.60;83.10
51661;DHT22;37741;49.748;8.490;2024-01-16T05:00:55;-0.60;83.10
51661;DHT22;37741;49.748;8.490;2024-01-16T05:03:21;-0.60;83.10
51661;DHT22;37741;49.748;8.490;2024-01-16T05:05:46;-0.60;83.10
51661;DHT22;37741;49.748;8.490;2024-01-16T05:08:12;-0.50;83.20
51661;DHT22;37741;49.748;8.490;2024-01-16T05:10:38;-0.60;83.10
51661;DHT22;37741;49.748;8.490;2024-01-16T05:13:03;-0.60;83.20
51661;DHT22;37741;49.748;8.490;2024-01-16T05:15:29;-0.60;83.10
51661;DHT22;37741;49.748;8.490;2024-01-16T05:17:54;-0.60;83.10
51661;DHT22;37741;49.748;8.490;2024-01-16T05:20:20;-0.60;83.10
51661;DHT22;37741;49.748;8.490;2024-01-16T05:22:47;-0.60;83.10
51661;DHT22;37741;49.748;8.490;2024-01-16T05:25:12;-0.60;83.10
51661;DHT22;37741;49.748;8.490;2024-01-16T05:27:38;-0.60;83.10
51661;DHT22;37741;49.748;8.490;2024-01-16T05:30:04;-0.60;83.10
51661;DHT22;37741;49.748;8.490;2024-01-16T05:32:29;-0.60;83.10
51661;DHT22;37741;49.748;8.490;2024-01-16T05:34:55;-0.60;83.20
51661;DHT22;37741;49.748;8.490;2024-01-16T05:37:20;-0.60;83.20
51661;DHT22;37741;49.748;8.490;2024-01-16T05:39:46;-0.60;83.20
51661;DHT22;37741;49.748;8.490;2024-01-16T05:42:12;-0.60;83.20
51661;DHT22;37741;49.748;8.490;2024-01-16T05:44:37;-0.60;83.20
51661;DHT22;37741;49.748;8.490;2024-01-16T05:47:04;-0.70;83.10
51661;DHT22;37741;49.748;8.490;2024-01-16T05:49:30;-0.70;83.10
51661;DHT22;37741;49.748;8.490;2024-01-16T05:51:55;-0.70;83.10
51661;DHT22;37741;49.748;8.490;2024-01-16T05:54:21;-0.60;83.20
51661;DHT22;37741;49.748;8.490;2024-01-16T05:56:46;-0.70;83.10
51661;DHT22;37741;49.748;8.490;2024-01-16T05:59:12;-0.70;83.10
51661;DHT22;37741;49.748;8.490;2024-01-16T06:01:38;-0.70;83.10
51661;DHT22;37741;49.748;8.490;2024-01-16T06:04:04;-0.70;83.10
51661;DHT22;37741;49.748;8.490;2024-01-16T06:06:30;-0.70;83.10
51661;DHT22;37741;49.748;8.490;2024-01-16T06:08:55;-0.70;83.10
51661;DHT22;37741;49.748;8.490;2024-01-16T06:11:32;-0.70;83.10
51661;DHT22;37741;49.748;8.490;2024-01-16T06:13:58;-0.70;83.10
51661;DHT22;37741;49.748;8.490;2024-01-16T06:16:25;-0.80;83.10
51661;DHT22;37741;49.748;8.490;2024-01-16T06:18:51;-0.80;83.10
51661;DHT22;37741;49.748;8.490;2024-01-16T06:21:16;-0.80;83.10
51661;DHT22;37741;49.748;8.490;2024-01-16T06:23:43;-0.80;83.20
51661;DHT22;37741;49.748;8.490;2024-01-16T06:26:11;-0.80;83.10
51661;DHT22;37741;49.748;8.490;2024-01-16T06:28:37;-0.80;83.10
51661;DHT22;37741;49.748;8.490;2024-01-16T06:31:03;-0.80;83.10
51661;DHT22;37741;49.748;8.490;2024-01-16T06:33:29;-0.80;83.10
51661;DHT22;37741;49.748;8.490;2024-01-16T06:35:55;-0.80;83.10
51661;DHT22;37741;49.748;8.490;2024-01-16T06:38:21;-0.80;83.10
51661;DHT22;37741;49.748;8.490;2024-01-16T06:40:46;-0.80;83.20
51661;DHT22;37741;49.748;8.490;2024-01-16T06:43:14;-0.80;83.10
51661;DHT22;37741;49.748;8.490;2024-01-16T06:45:41;-0.80;83.20
51661;DHT22;37741;49.748;8.490;2024-01-16T06:48:08;-0.80;83.20
51661;DHT22;37741;49.748;8.490;2024-01-16T06:50:33;-0.90;83.10
51661;DHT22;37741;49.748;8.490;2024-01-16T06:52:59;-0.90;83.10
51661;DHT22;37741;49.748;8.490;2024-01-16T06:55:25;-0.80;83.20
51661;DHT22;37741;49.748;8.490;2024-01-16T06:57:53;-0.90;83.10
51661;DHT22;37741;49.748;8.490;2024-01-16T07:00:21;-0.90;83.10
51661;DHT22;37741;49.748;8.490;2024-01-16T07:02:51;-0.90;83.10
51661;DHT22;37741;49.748;8.490;2024-01-16T07:05:17;-0.90;83.10
51661;DHT22;37741;49.748;8.490;2024-01-16T07:07:43;-0.90;83.10
51661;DHT22;37741;49.748;8.490;2024-01-16T07:10:09;-0.90;83.10
51661;DHT22;37741;49.748;8.490;2024-01-16T07:12:46;-0.90;83.10
51661;DHT22;37741;49.748;8.490;2024-01-16T07:15:12;-0.90;83.10
51661;DHT22;37741;49.748;8.490;2024-01-16T07:17:39;-0.90;83.20
51661;DHT22;37741;49.748;8.490;2024-01-16T07:20:05;-0.90;83.10
51661;DHT22;37741;49.748;8.490;2024-01-16T07:22:31;-1.00;83.10
51661;DHT22;37741;49.748;8.490;2024-01-16T07:24:57;-1.00;83.10
51661;DHT22;37741;49.748;8.490;2024-01-16T07:27:22;-1.00;83.10
51661;DHT22;37741;49.748;8.490;2024-01-16T07:29:48;-1.00;83.10
51661;DHT22;37741;49.748;8.490;2024-01-16T07:32:14;-0.90;83.10
51661;DHT22;37741;49.748;8.490;2024-01-16T07:34:42;-1.00;83.10
51661;DHT22;37741;49.748;8.490;2024-01-16T07:37:10;-1.00;83.10
51661;DHT22;37741;49.748;8.490;2024-01-16T07:39:39;-1.00;83.10
51661;DHT22;37741;49.748;8.490;2024-01-16T07:42:04;-1.00;83.10
51661;DHT22;37741;49.748;8.490;2024-01-16T07:44:30;-1.00;83.10
51661;DHT22;37741;49.748;8.490;2024-01-16T07:46:56;-1.00;83.10
51661;DHT22;37741;49.748;8.490;2024-01-16T07:49:29;-1.00;83.10
51661;DHT22;37741;49.748;8.490;2024-01-16T07:51:55;-1.00;83.20
51661;DHT22;37741;49.748;8.490;2024-01-16T07:54:21;-1.00;83.20
51661;DHT22;37741;49.748;8.490;2024-01-16T07:56:54;-1.00;83.20
51661;DHT22;37741;49.748;8.490;2024-01-16T07:59:19;-1.00;83.20
51661;DHT22;37741;49.748;8.490;2024-01-16T08:01:48;-1.00;83.30
51661;DHT22;37741;49.748;8.490;2024-01-16T08:04:13;-1.10;83.20
51661;DHT22;37741;49.748;8.490;2024-01-16T08:06:39;-1.00;83.30
51661;DHT22;37741;49.748;8.490;2024-01-16T08:09:05;-1.00;83.30
51661;DHT22;37741;49.748;8.490;2024-01-16T08:11:31;-1.00;83.30
51661;DHT22;37741;49.748;8.490;2024-01-16T08:13:57;-1.00;83.30
51661;DHT22;37741;49.748;8.490;2024-01-16T08:16:22;-1.00;83.40
51661;DHT22;37741;49.748;8.490;2024-01-16T08:18:48;-1.00;83.40
51661;DHT22;37741;49.748;8.490;2024-01-16T08:21:14;-1.00;83.40
51661;DHT22;37741;49.748;8.490;2024-01-16T08:23:39;-1.10;83.30
51661;DHT22;37741;49.748;8.490;2024-01-16T08:26:05;-1.00;83.40
51661;DHT22;37741;49.748;8.490;2024-01-16T08:28:31;-1.00;83.40
51661;DHT22;37741;49.748;8.490;2024-01-16T08:31:07;-1.00;83.40
51661;DHT22;37741;49.748;8.490;2024-01-16T08:33:32;-1.10;83.40
51661;DHT22;37741;49.748;8.490;2024-01-16T08:35:59;-1.10;83.40
51661;DHT22;37741;49.748;8.490;2024-01-16T08:38:24;-1.10;83.40
51661;DHT22;37741;49.748;8.490;2024-01-16T08:40:53;-1.10;83.40
51661;DHT22;37741;49.748;8.490;2024-01-16T08:43:19;-1.10;83.40
51661;DHT22;37741;49.748;8.490;2024-01-16T08:45:44;-1.10;83.40
51661;DHT22;37741;49.748;8.490;2024-01-16T08:48:13;-1.10;83.40
51661;DHT22;37741;49.748;8.490;2024-01-16T08:50:40;-1.10;83.50
51661;DHT22;37741;49.748;8.490;2024-01-16T08:53:06;-1.10;83.50
51661;DHT22;37741;49.748;8.490;2024-01-16T08:55:32;-1.00;83.50
51661;DHT22;37741;49.748;8.490;2024-01-16T08:57:57;-1.10;83.50
51661;DHT22;37741;49.748;8.490;2024-01-16T09:00:23;-1.10;83.50
51661;DHT22;37741;49.748;8.490;2024-01-16T09:02:49;-1.00;83.60
51661;DHT22;37741;49.748;8.490;2024-01-16T09:05:15;-1.10;83.50
51661;DHT22;37741;49.748;8.490;2024-01-16T09:07:41;-1.00;83.50
51661;DHT22;37741;49.748;8.490;2024-01-16T09:10:07;-1.10;83.50
51661;DHT22;37741;49.748;8.490;2024-01-16T09:12:33;-1.10;83.50
51661;DHT22;37741;49.748;8.490;2024-01-16T09:14:59;-1.00;83.60
51661;DHT22;37741;49.748;8.490;2024-01-16T09:17:25;-1.00;83.60
51661;DHT22;37741;49.748;8.490;2024-01-16T09:19:53;-1.00;83.60
51661;DHT22;37741;49.748;8.490;2024-01-16T09:22:19;-1.00;83.60
51661;DHT22;37741;49.748;8.490;2024-01-16T09:24:44;-1.00;83.60
51661;DHT22;37741;49.748;8.490;2024-01-16T09:27:10;-1.00;83.60
51661;DHT22;37741;49.748;8.490;2024-01-16T09:29:36;-1.00;83.60
51661;DHT22;37741;49.748;8.490;2024-01-16T09:32:02;-1.00;83.60
51661;DHT22;37741;49.748;8.490;2024-01-16T09:34:28;-1.00;83.60
51661;DHT22;37741;49.748;8.490;2024-01-16T09:36:54;-1.00;83.60
51661;DHT22;37741;49.748;8.490;2024-01-16T09:39:24;-1.00;83.60
51661;DHT22;37741;49.748;8.490;2024-01-16T09:41:50;-1.00;83.60
51661;DHT22;37741;49.748;8.490;2024-01-16T09:44:15;-1.00;83.60
51661;DHT22;37741;49.748;8.490;2024-01-16T09:46:44;-1.00;83.60
51661;DHT22;37741;49.748;8.490;2024-01-16T09:49:14;-1.00;83.60
51661;DHT22;37741;49.748;8.490;2024-01-16T09:51:43;-0.90;83.70
51661;DHT22;37741;49.748;8.490;2024-01-16T09:54:08;-0.90;83.70
51661;DHT22;37741;49.748;8.490;2024-01-16T09:56:35;-1.00;83.70
51661;DHT22;37741;49.748;8.490;2024-01-16T09:59:06;-0.90;83.70
51661;DHT22;37741;49.748;8.490;2024-01-16T10:01:33;-0.90;83.70
51661;DHT22;37741;49.748;8.490;2024-01-16T10:04:00;-0.90;83.80
51661;DHT22;37741;49.748;8.490;2024-01-16T10:06:28;-0.90;83.70
51661;DHT22;37741;49.748;8.490;2024-01-16T10:08:55;-0.90;83.80
51661;DHT22;37741;49.748;8.490;2024-01-16T10:11:21;-0.90;83.90
51661;DHT22;37741;49.748;8.490;2024-01-16T10:13:47;-0.80;83.80
51661;DHT22;37741;49.748;8.490;2024-01-16T10:16:13;-0.90;83.80
51661;DHT22;37741;49.748;8.490;2024-01-16T10:18:39;-0.80;83.80
51661;DHT22;37741;49.748;8.490;2024-01-16T10:21:05;-0.80;83.80
51661;DHT22;37741;49.748;8.490;2024-01-16T10:23:44;-0.80;83.80
51661;DHT22;37741;49.748;8.490;2024-01-16T10:26:11;-0.80;83.80
51661;DHT22;37741;49.748;8.490;2024-01-16T10:28:42;-0.80;83.80
51661;DHT22;37741;49.748;8.490;2024-01-16T10:31:09;-0.80;83.80
51661;DHT22;37741;49.748;8.490;2024-01-16T10:33:35;-0.80;83.80
51661;DHT22;37741;49.748;8.490;2024-01-16T10:39:22;-0.70;83.80
51661;DHT22;37741;49.748;8.490;2024-01-16T10:41:57;-0.70;83.80
51661;DHT22;37741;49.748;8.490;2024-01-16T10:44:24;-0.70;83.80
51661;DHT22;37741;49.748;8.490;2024-01-16T10:46:50;-0.70;83.80
51661;DHT22;37741;49.748;8.490;2024-01-16T10:49:16;-0.60;83.80
51661;DHT22;37741;49.748;8.490;2024-01-16T10:51:44;-0.70;83.60
51661;DHT22;37741;49.748;8.490;2024-01-16T10:54:13;-0.60;84.30
51661;DHT22;37741;49.748;8.490;2024-01-16T10:56:44;-0.60;83.70
51661;DHT22;37741;49.748;8.490;2024-01-16T10:59:24;-0.60;83.60
51661;DHT22;37741;49.748;8.490;2024-01-16T11:01:53;-0.60;83.60
51661;DHT22;37741;49.748;8.490;2024-01-16T11:04:21;-0.60;83.50
51661;DHT22;37741;49.748;8.490;2024-01-16T11:06:47;-0.50;83.60
51661;DHT22;37741;49.748;8.490;2024-01-16T11:09:13;-0.50;83.50
51661;DHT22;37741;49.748;8.490;2024-01-16T11:11:44;-0.50;83.50
51661;DHT22;37741;49.748;8.490;2024-01-16T11:14:12;-0.50;83.40
51661;DHT22;37741;49.748;8.490;2024-01-16T11:16:39;-0.50;83.50
51661;DHT22;37741;49.748;8.490;2024-01-16T11:19:08;-0.40;83.60
51661;DHT22;37741;49.748;8.490;2024-01-16T11:21:37;-0.40;83.60
51661;DHT22;37741;49.748;8.490;2024-01-16T11:24:04;-0.40;83.60
51661;DHT22;37741;49.748;8.490;2024-01-16T11:26:32;-0.40;83.50
51661;DHT22;37741;49.748;8.490;2024-01-16T11:28:59;-0.40;83.60
51661;DHT22;37741;49.748;8.490;2024-01-16T11:31:35;-0.40;83.50
51661;DHT22;37741;49.748;8.490;2024-01-16T11:34:02;-0.30;83.50
51661;DHT22;37741;49.748;8.490;2024-01-16T11:36:57;-0.30;83.40
51661;DHT22;37741;49.748;8.490;2024-01-16T11:39:24;-0.30;83.50
51661;DHT22;37741;49.748;8.490;2024-01-16T11:41:54;-0.30;83.40
51661;DHT22;37741;49.748;8.490;2024-01-16T11:44:40;-0.30;83.80
51661;DHT22;37741;49.748;8.490;2024-01-16T11:47:07;-0.30;83.40
51661;DHT22;37741;49.748;8.490;2024-01-16T11:49:37;-0.30;83.30
51661;DHT22;37741;49.748;8.490;2024-01-16T11:52:03;-0.30;83.30
51661;DHT22;37741;49.748;8.490;2024-01-16T11:54:29;-0.20;83.30
51661;DHT22;37741;49.748;8.490;2024-01-16T11:57:25;-0.20;83.40
51661;DHT22;37741;49.748;8.490;2024-01-16T11:59:58;-0.20;83.40
51661;DHT22;37741;49.748;8.490;2024-01-16T12:02:57;-0.20;83.30
51661;DHT22;37741;49.748;8.490;2024-01-16T12:05:24;-0.20;83.30
51661;DHT22;37741;49.748;8.490;2024-01-16T12:07:51;-0.20;83.30
51661;DHT22;37741;49.748;8.490;2024-01-16T12:10:19;-0.20;83.30
51661;DHT22;37741;49.748;8.490;2024-01-16T12:12:45;-0.10;83.30
51661;DHT22;37741;49.748;8.490;2024-01-16T12:15:15;-0.20;83.10
51661;DHT22;37741;49.748;8.490;2024-01-16T12:18:00;-0.10;83.10
51661;DHT22;37741;49.748;8.490;2024-01-16T12:20:34;-0.10;83.10
51661;DHT22;37741;49.748;8.490;2024-01-16T12:23:01;-0.10;83.00
51661;DHT22;37741;49.748;8.490;2024-01-16T12:25:29;-0.10;83.00
51661;DHT22;37741;49.748;8.490;2024-01-16T12:27:57;0.00;82.90
51661;DHT22;37741;49.748;8.490;2024-01-16T12:30:48;-0.10;82.80
51661;DHT22;37741;49.748;8.490;2024-01-16T12:33:14;0.00;82.80
51661;DHT22;37741;49.748;8.490;2024-01-16T12:35:42;0.00;82.70
51661;DHT22;37741;49.748;8.490;2024-01-16T12:38:09;0.00;82.70
51661;DHT22;37741;49.748;8.490;2024-01-16T12:40:42;0.00;82.60
51661;DHT22;37741;49.748;8.490;2024-01-16T12:43:09;0.00;82.50
51661;DHT22;37741;49.748;8.490;2024-01-16T12:45:35;0.10;82.50
51661;DHT22;37741;49.748;8.490;2024-01-16T12:48:01;0.10;82.40
51661;DHT22;37741;49.748;8.490;2024-01-16T12:50:29;0.10;82.30
51661;DHT22;37741;49.748;8.490;2024-01-16T12:53:10;0.10;82.30
51661;DHT22;37741;49.748;8.490;2024-01-16T12:55:37;0.20;82.30
51661;DHT22;37741;49.748;8.490;2024-01-16T12:58:20;0.20;82.20
51661;DHT22;37741;49.748;8.490;2024-01-16T13:00:49;0.20;82.20
51661;DHT22;37741;49.748;8.490;2024-01-16T13:03:17;0.20;82.10
51661;DHT22;37741;49.748;8.490;2024-01-16T13:05:43;0.20;82.00
51661;DHT22;37741;49.748;8.490;2024-01-16T13:08:16;0.20;82.00
51661;DHT22;37741;49.748;8.490;2024-01-16T13:10:42;0.20;81.90
51661;DHT22;37741;49.748;8.490;2024-01-16T13:13:12;0.30;81.90
51661;DHT22;37741;49.748;8.490;2024-01-16T13:15:39;0.30;81.80
51661;DHT22;37741;49.748;8.490;2024-01-16T13:18:05;0.30;81.80
51661;DHT22;37741;49.748;8.490;2024-01-16T13:20:31;0.30;81.80
51661;DHT22;37741;49.748;8.490;2024-01-16T13:22:56;0.30;81.70
51661;DHT22;37741;49.748;8.490;2024-01-16T13:25:22;0.40;81.70
51661;DHT22;37741;49.748;8.490;2024-01-16T13:27:48;0.30;81.60
51661;DHT22;37741;49.748;8.490;2024-01-16T13:30:14;0.40;81.60
51661;DHT22;37741;49.748;8.490;2024-01-16T13:32:40;0.40;81.50
51661;DHT22;37741;49.748;8.490;2024-01-16T13:35:06;0.40;81.60
51661;DHT22;37741;49.748;8.490;2024-01-16T13:37:34;0.40;81.60
51661;DHT22;37741;49.748;8.490;2024-01-16T13:40:05;0.40;81.60
51661;DHT22;37741;49.748;8.490;2024-01-16T13:42:34;0.40;81.50
51661;DHT22;37741;49.748;8.490;2024-01-16T13:45:00;0.40;81.50
51661;DHT22;37741;49.748;8.490;2024-01-16T13:47:26;0.40;81.40
51661;DHT22;37741;49.748;8.490;2024-01-16T13:49:52;0.40;81.30
51661;DHT22;37741;49.748;8.490;2024-01-16T13:52:17;0.40;81.30
51661;DHT22;37741;49.748;8.490;2024-01-16T13:54:43;0.40;81.10
51661;DHT22;37741;49.748;8.490;2024-01-16T13:57:09;0.50;81.20
51661;DHT22;37741;49.748;8.490;2024-01-16T13:59:35;0.50;81.00
51661;DHT22;37741;49.748;8.490;2024-01-16T14:02:05;0.50;80.90
51661;DHT22;37741;49.748;8.490;2024-01-16T14:04:31;0.50;81.00
51661;DHT22;37741;49.748;8.490;2024-01-16T14:06:57;0.50;81.00
51661;DHT22;37741;49.748;8.490;2024-01-16T14:09:23;0.50;80.90
51661;DHT22;37741;49.748;8.490;2024-01-16T14:12:34;0.50;80.80
51661;DHT22;37741;49.748;8.490;2024-01-16T14:15:01;0.60;80.60
51661;DHT22;37741;49.748;8.490;2024-01-16T14:17:53;0.50;81.10
51661;DHT22;37741;49.748;8.490;2024-01-16T14:20:23;0.60;81.20
51661;DHT22;37741;49.748;8.490;2024-01-16T14:22:51;0.60;80.50
51661;DHT22;37741;49.748;8.490;2024-01-16T14:25:17;0.60;80.40
51661;DHT22;37741;49.748;8.490;2024-01-16T14:27:48;0.60;81.00
51661;DHT22;37741;49.748;8.490;2024-01-16T14:30:15;0.60;80.50
51661;DHT22;37741;49.748;8.490;2024-01-16T14:32:43;0.60;80.50
51661;DHT22;37741;49.748;8.490;2024-01-16T14:35:10;0.60;80.50
51661;DHT22;37741;49.748;8.490;2024-01-16T14:37:37;0.60;80.50
51661;DHT22;37741;49.748;8.490;2024-01-16T14:40:04;0.60;80.40
51661;DHT22;37741;49.748;8.490;2024-01-16T14:42:48;0.60;80.40
51661;DHT22;37741;49.748;8.490;2024-01-16T14:45:14;0.60;80.40
51661;DHT22;37741;49.748;8.490;2024-01-16T14:47:40;0.60;80.40
51661;DHT22;37741;49.748;8.490;2024-01-16T14:50:07;0.60;80.40
51661;DHT22;37741;49.748;8.490;2024-01-16T14:52:33;0.60;80.30
51661;DHT22;37741;49.748;8.490;2024-01-16T14:55:01;0.70;80.50
51661;DHT22;37741;49.748;8.490;2024-01-16T14:57:27;0.60;80.40
51661;DHT22;37741;49.748;8.490;2024-01-16T14:59:55;0.70;80.50
51661;DHT22;37741;49.748;8.490;2024-01-16T15:02:21;0.60;80.50
51661;DHT22;37741;49.748;8.490;2024-01-16T15:04:48;0.70;80.60
51661;DHT22;37741;49.748;8.490;2024-01-16T15:07:16;0.70;80.60
51661;DHT22;37741;49.748;8.490;2024-01-16T15:09:42;0.70;80.50
51661;DHT22;37741;49.748;8.490;2024-01-16T15:12:08;0.70;80.50
51661;DHT22;37741;49.748;8.490;2024-01-16T15:14:33;0.70;80.50
51661;DHT22;37741;49.748;8.490;2024-01-16T15:17:02;0.70;80.40
51661;DHT22;37741;49.748;8.490;2024-01-16T15:19:29;0.70;81.00
51661;DHT22;37741;49.748;8.490;2024-01-16T15:21:55;0.70;80.40
51661;DHT22;37741;49.748;8.490;2024-01-16T15:24:21;0.70;80.40
51661;DHT22;37741;49.748;8.490;2024-01-16T15:26:57;0.70;80.50
51661;DHT22;37741;49.748;8.490;2024-01-16T15:29:23;0.70;80.60
51661;DHT22;37741;49.748;8.490;2024-01-16T15:31:49;0.70;80.70
51661;DHT22;37741;49.748;8.490;2024-01-16T15:34:15;0.70;81.30
51661;DHT22;37741;49.748;8.490;2024-01-16T15:36:41;0.70;80.70
51661;DHT22;37741;49.748;8.490;2024-01-16T15:39:07;0.70;80.70
51661;DHT22;37741;49.748;8.490;2024-01-16T15:41:33;0.70;80.70